createdAt,value
2019-04-20T00:00:06.148Z,11.70
2019-04-20T00:04:39.015Z,12.00
2019-04-20T00:09:19.343Z,11.60
2019-04-20T00:13:59.474Z,11.60
2019-04-20T00:18:26.889Z,12.70
2019-04-20T00:23:01.673Z,11.40
2019-04-20T00:27:55.592Z,12.20
2019-04-20T00:32:19.987Z,11.70
2019-04-20T00:36:45.347Z,11.90
2019-04-20T00:41:20.324Z,11.50
2019-04-20T00:45:57.347Z,11.30
2019-04-20T00:50:41.782Z,11.50
2019-04-20T00:55:00.074Z,10.80
2019-04-20T00:59:55.246Z,12.10
2019-04-20T01:04:20.201Z,11.20
2019-04-20T01:08:59.248Z,10.70
2019-04-20T01:18:25.090Z,9.80
2019-04-20T01:23:03.294Z,10.50
2019-04-20T01:27:42.571Z,10.50
2019-04-20T01:32:15.008Z,10.30
2019-04-20T01:36:57.566Z,10.10
2019-04-20T01:41:16.132Z,10.10
2019-04-20T01:45:52.262Z,10.00
2019-04-20T01:50:27.707Z,9.70
2019-04-20T01:55:19.588Z,10.10
2019-04-20T01:59:52.028Z,10.20
2019-04-20T02:04:35.992Z,10.20
2019-04-20T02:18:23.128Z,9.40
2019-04-20T02:23:01.864Z,9.70
2019-04-20T02:27:27.034Z,8.90
2019-04-20T02:41:44.302Z,9.20
2019-04-20T02:46:33.378Z,9.00
2019-04-20T02:51:08.454Z,8.50
2019-04-20T03:04:20.539Z,8.70
2019-04-20T03:09:09.005Z,8.30
2019-04-20T03:13:41.436Z,8.70
2019-04-20T03:18:13.899Z,8.50
2019-04-20T03:23:11.164Z,8.30
2019-04-20T03:27:19.418Z,8.80
2019-04-20T03:36:49.535Z,7.90
2019-04-20T03:41:05.188Z,7.40
2019-04-20T03:45:52.670Z,7.60
2019-04-20T03:50:42.400Z,8.10
2019-04-20T03:55:33.779Z,9.20
2019-04-20T04:00:24.991Z,8.80
2019-04-20T04:05:13.548Z,9.40
2019-04-20T04:09:39.736Z,9.30
2019-04-20T04:14:05.021Z,9.00
2019-04-20T04:18:44.744Z,9.40
2019-04-20T04:23:32.303Z,9.90
2019-04-20T04:28:03.869Z,9.60
2019-04-20T04:33:02.974Z,9.40
2019-04-20T04:37:17.994Z,9.60
2019-04-20T04:41:51.207Z,9.80
2019-04-20T04:46:03.988Z,9.70
2019-04-20T04:50:44.621Z,10.00
2019-04-20T04:55:19.958Z,9.80
2019-04-20T04:59:46.790Z,10.30
2019-04-20T05:04:44.532Z,9.60
2019-04-20T05:09:00.147Z,10.20
2019-04-20T05:13:38.081Z,10.40
2019-04-20T05:18:35.751Z,10.90
2019-04-20T05:23:31.930Z,11.20
2019-04-20T05:28:09.381Z,11.00
2019-04-20T05:32:37.868Z,11.10
2019-04-20T05:37:33.063Z,11.70
2019-04-20T05:41:58.180Z,11.40
2019-04-20T05:46:37.345Z,11.30
2019-04-20T05:55:40.099Z,10.30
2019-04-20T06:00:19.190Z,11.10
2019-04-20T06:09:24.000Z,11.10
2019-04-20T06:13:58.032Z,12.00
2019-04-20T06:18:37.219Z,12.30
2019-04-20T06:28:09.076Z,13.20
2019-04-20T06:33:45.033Z,13.10
2019-04-20T06:38:00.880Z,13.10
2019-04-20T06:42:34.286Z,13.90
2019-04-20T06:47:09.344Z,13.00
2019-04-20T06:51:42.736Z,13.10
2019-04-20T06:56:23.671Z,14.40
2019-04-20T07:01:03.888Z,14.20
2019-04-20T07:05:31.785Z,14.20
2019-04-20T07:10:14.727Z,15.00
2019-04-20T07:14:33.100Z,16.20
2019-04-20T07:19:20.096Z,15.20
2019-04-20T07:24:03.572Z,15.50
2019-04-20T07:28:35.344Z,14.80
2019-04-20T07:33:19.936Z,15.50
2019-04-20T07:42:28.971Z,15.40
2019-04-20T07:51:14.494Z,16.40
2019-04-20T08:09:35.002Z,16.40
2019-04-20T08:14:18.100Z,16.80
2019-04-20T08:18:51.315Z,16.30
2019-04-20T08:23:23.214Z,16.80
2019-04-20T08:27:55.022Z,17.20
2019-04-20T08:32:51.818Z,17.00
2019-04-20T08:37:25.777Z,17.00
2019-04-20T08:42:07.436Z,17.60
2019-04-20T08:46:44.590Z,16.40
2019-04-20T08:51:14.262Z,16.50
2019-04-20T08:55:43.901Z,16.90
2019-04-20T09:00:01.527Z,16.60
2019-04-20T09:04:45.138Z,16.60
2019-04-20T09:09:37.926Z,16.80
2019-04-20T09:13:50.123Z,16.90
2019-04-20T09:18:34.363Z,17.10
2019-04-20T09:23:16.893Z,16.90
2019-04-20T09:27:45.853Z,17.40
2019-04-20T09:32:28.704Z,18.00
2019-04-20T09:37:14.181Z,18.40
2019-04-20T09:41:54.805Z,17.90
2019-04-20T09:46:10.125Z,18.20
2019-04-20T09:51:00.882Z,18.30
2019-04-20T10:00:16.827Z,18.80
2019-04-20T10:04:33.438Z,18.70
2019-04-20T10:09:05.147Z,19.00
2019-04-20T10:13:40.532Z,19.50
2019-04-20T10:18:15.149Z,18.60
2019-04-20T10:22:46.695Z,19.70
2019-04-20T10:31:51.421Z,20.10
2019-04-20T10:36:29.827Z,19.70
2019-04-20T10:41:11.470Z,20.00
2019-04-20T10:45:39.131Z,19.70
2019-04-20T10:50:11.569Z,18.80
2019-04-20T10:54:38.416Z,19.00
2019-04-20T10:59:11.885Z,19.90
2019-04-20T11:03:45.104Z,20.40
2019-04-20T11:08:16.902Z,20.50
2019-04-20T11:12:48.469Z,20.30
2019-04-20T11:17:24.688Z,19.80
2019-04-20T11:31:01.935Z,19.80
2019-04-20T11:40:01.387Z,20.00
2019-04-20T11:44:34.855Z,20.30
2019-04-20T11:53:42.654Z,20.40
2019-04-20T11:58:16.286Z,20.50
2019-04-20T12:02:53.815Z,20.30
2019-04-20T12:07:22.553Z,20.10
2019-04-20T12:12:08.251Z,20.50
2019-04-20T12:16:23.600Z,21.10
2019-04-20T12:20:43.000Z,20.20
2019-04-20T12:25:02.575Z,19.90
2019-04-20T12:29:23.672Z,20.40
2019-04-20T12:33:44.308Z,20.10
2019-04-20T12:38:11.240Z,20.50
2019-04-20T12:42:46.645Z,20.00
2019-04-20T12:47:19.691Z,19.90
2019-04-20T12:51:59.258Z,19.90
2019-04-20T12:56:26.646Z,20.40
2019-04-20T13:05:31.870Z,19.40
2019-04-20T13:42:46.156Z,19.90
2019-04-20T13:47:19.120Z,19.20
2019-04-20T14:11:07.303Z,19.10
2019-04-20T14:15:44.872Z,18.60
2019-04-20T14:20:22.019Z,18.80
2019-04-20T14:24:53.274Z,18.80
2019-04-20T14:29:27.209Z,18.70
2019-04-20T14:34:02.595Z,19.00
2019-04-20T15:06:17.739Z,19.00
2019-04-20T15:10:49.593Z,18.60
2019-04-20T15:20:12.216Z,18.50
2019-04-20T15:29:22.229Z,18.80
2019-04-20T15:33:57.125Z,19.10
2019-04-20T15:38:29.133Z,18.00
2019-04-20T16:15:07.483Z,18.50
2019-04-20T16:19:49.357Z,18.10
2019-04-20T16:24:12.976Z,18.50
2019-04-20T16:37:52.743Z,18.60
2019-04-20T16:46:58.328Z,18.60
2019-04-20T16:56:06.608Z,18.10
2019-04-20T17:05:29.152Z,17.60
2019-04-20T17:10:04.362Z,17.80
2019-04-20T17:14:39.798Z,17.90
2019-04-20T17:19:15.989Z,17.70
2019-04-20T17:23:47.252Z,16.80
2019-04-20T17:28:39.111Z,16.80
2019-04-20T17:33:20.586Z,17.10
2019-04-20T17:37:50.371Z,16.50
2019-04-20T17:42:41.239Z,16.80
2019-04-20T18:00:56.025Z,16.70
2019-04-20T18:05:58.567Z,15.90
2019-04-20T18:10:26.054Z,16.00
2019-04-20T18:15:00.754Z,16.10
2019-04-20T18:19:30.955Z,15.80
2019-04-20T18:43:04.934Z,16.10
2019-04-20T18:52:09.331Z,15.10
2019-04-20T19:01:19.289Z,15.60
2019-04-20T19:05:57.958Z,15.10
2019-04-20T19:19:46.800Z,14.40
2019-04-20T19:24:18.285Z,15.20
2019-04-20T19:28:55.763Z,15.00
2019-04-20T19:38:09.605Z,14.60
2019-04-20T19:42:45.268Z,14.20
2019-04-20T19:56:32.423Z,14.00
2019-04-20T20:00:55.932Z,14.10
2019-04-20T20:05:33.714Z,13.90
2019-04-20T20:28:47.065Z,13.70
2019-04-20T20:37:50.130Z,13.90
2019-04-20T20:51:51.363Z,13.80
2019-04-20T20:56:01.915Z,13.50
2019-04-20T21:09:27.113Z,13.50
2019-04-20T21:14:01.349Z,14.20
2019-04-20T21:27:42.765Z,13.20
2019-04-20T21:41:27.867Z,13.00
2019-04-20T21:46:04.958Z,13.80
2019-04-20T21:50:57.490Z,12.80
2019-04-20T21:55:09.924Z,13.10
2019-04-20T21:59:45.512Z,13.00
2019-04-20T22:04:20.058Z,13.40
2019-04-20T22:08:53.055Z,12.20
2019-04-20T22:13:29.559Z,12.80
2019-04-20T22:22:47.157Z,13.10
2019-04-20T22:31:46.210Z,12.90
2019-04-20T22:40:47.417Z,11.80
2019-04-20T22:50:11.861Z,11.50
2019-04-20T22:54:42.276Z,11.40
2019-04-20T22:59:04.235Z,11.50
2019-04-20T23:03:32.687Z,11.60
2019-04-20T23:12:39.940Z,11.40
2019-04-20T23:17:12.473Z,10.90
2019-04-20T23:21:48.602Z,11.50
2019-04-20T23:26:29.319Z,10.40
2019-04-20T23:44:52.110Z,10.80
2019-04-20T23:49:53.324Z,10.90
